Flugplatz Bremen

Bericht für EDDW

vom 22.03. um 21:50 UTC

Wind 3 kt aus 140°

Sichtweite 9000 m

keine Wolken

Temperatur 10.0°C

Taupunkt 8.0°C

Luftfeuchtigkeit 87%

Luftdruck 1025 hPa

EDDW 222150Z 14003KT 9000 NSC 10/08 Q1025

Prognose für EDDW

vom 22.03. um 21:13 UTC

Zwischen 21:00 UTC und 00:00 UTC

Wind 4 kt aus 180°

Sichtweite 10 km oder mehr

keine signifikanten Wettererscheinungen

keine Wolken


Am 23.03. zwischen 00:00 und 03:00 UTC übergehend zu

Wind 7 kt aus 240°

Sichtweite 3000 m

feuchter Dunst

aufgebrochene Bewölkung in 400 ft


Am 23.03. zwischen 03:00 UTC und 08:00 UTC zeitweise

Sichtweite 600 m

Nebel

aufgebrochene Bewölkung in 100 ft


Am 23.03. zwischen 08:00 und 11:00 UTC übergehend zu

Wind 12 kt aus 300°

Sichtweite 10 km oder mehr

feuchter Dunst

aufgebrochene Bewölkung in 1200 ft


Am 23.03. zwischen 11:00 und 13:00 UTC übergehend zu

Wind 12 kt aus 300°

Sichtweite 10 km oder mehr

feuchter Dunst

aufgelockert bewölkt in 3000 ft

TAF AMD EDDW 222113Z 2221/2318 18004KT CAVOK BECMG 2300/2303 24007KT 3000 BR BKN004 TEMPO 2303/2308 0600 FG BKN001 BECMG 2308/2311 30012KT 9999 BKN012 BECMG 2311/2313 SCT030
Impressum